createdAt,value
2023-01-19T00:01:45.822Z,-4.27
2023-01-19T00:04:15.847Z,-4.30
2023-01-19T00:06:45.683Z,-4.26
2023-01-19T00:09:15.487Z,-4.24
2023-01-19T00:11:45.504Z,-4.23
2023-01-19T00:14:15.262Z,-4.23
2023-01-19T00:16:45.006Z,-4.25
2023-01-19T00:19:14.799Z,-4.29
2023-01-19T00:21:44.554Z,-4.34
2023-01-19T00:24:14.936Z,-4.37
2023-01-19T00:26:44.685Z,-4.36
2023-01-19T00:29:15.721Z,-4.40
2023-01-19T00:31:44.922Z,-4.41
2023-01-19T00:34:14.743Z,-4.40
2023-01-19T00:36:44.496Z,-4.43
2023-01-19T00:39:14.303Z,-4.47
2023-01-19T00:42:02.638Z,-4.47
2023-01-19T00:44:32.421Z,-4.57
2023-01-19T00:47:04.797Z,-4.58
2023-01-19T00:49:34.591Z,-4.56
2023-01-19T00:52:04.745Z,-4.57
2023-01-19T00:54:34.580Z,-4.54
2023-01-19T00:57:04.835Z,-4.51
2023-01-19T00:59:37.249Z,-4.44
2023-01-19T01:02:08.620Z,-4.44
2023-01-19T01:04:35.745Z,-4.44
2023-01-19T01:07:05.789Z,-4.39
2023-01-19T01:09:35.586Z,-4.41
2023-01-19T01:12:06.891Z,-4.42
2023-01-19T01:14:35.519Z,-4.45
2023-01-19T01:17:05.708Z,-4.47
2023-01-19T01:19:35.638Z,-4.51
2023-01-19T01:22:05.947Z,-4.50
2023-01-19T01:24:36.267Z,-4.45
2023-01-19T01:27:06.027Z,-4.54
2023-01-19T01:29:36.190Z,-4.59
2023-01-19T01:32:06.208Z,-4.56
2023-01-19T01:34:36.037Z,-4.47
2023-01-19T01:37:09.308Z,-4.46
2023-01-19T01:39:39.136Z,-4.50
2023-01-19T01:42:24.651Z,-4.55
2023-01-19T01:44:57.029Z,-4.50
2023-01-19T01:47:48.721Z,-4.50
2023-01-19T01:50:28.565Z,-4.52
2023-01-19T01:53:14.273Z,-4.57
2023-01-19T01:55:49.652Z,-4.65
2023-01-19T01:58:19.443Z,-4.64
2023-01-19T02:01:07.824Z,-4.64
2023-01-19T02:03:37.990Z,-4.67
2023-01-19T02:06:09.972Z,-4.70
2023-01-19T02:09:12.415Z,-4.71
2023-01-19T02:12:01.396Z,-4.79
2023-01-19T02:14:31.175Z,-4.84
2023-01-19T02:17:01.322Z,-4.88
2023-01-19T02:19:40.757Z,-4.89
2023-01-19T02:22:24.951Z,-4.81
2023-01-19T02:24:54.332Z,-4.82
2023-01-19T02:27:22.440Z,-4.83
2023-01-19T02:29:50.840Z,-4.83
2023-01-19T02:32:19.192Z,-4.77
2023-01-19T02:34:47.591Z,-4.81
2023-01-19T02:37:18.997Z,-4.89
2023-01-19T02:39:53.245Z,-4.90
2023-01-19T02:42:32.090Z,-4.90
2023-01-19T02:45:06.975Z,-4.89
2023-01-19T02:47:45.016Z,-4.85
2023-01-19T02:50:50.457Z,-4.83
2023-01-19T02:53:47.609Z,-4.79
2023-01-19T02:56:29.333Z,-4.76
2023-01-19T02:59:34.507Z,-4.79
2023-01-19T03:02:27.645Z,-4.81
2023-01-19T03:05:41.552Z,-4.85
2023-01-19T03:08:22.702Z,-4.85
2023-01-19T03:11:04.848Z,-4.77
2023-01-19T03:14:02.263Z,-4.84
2023-01-19T03:16:48.523Z,-4.82
2023-01-19T03:19:36.637Z,-4.77
2023-01-19T03:22:22.186Z,-4.82
2023-01-19T03:24:58.346Z,-4.85
2023-01-19T03:27:41.091Z,-4.84
2023-01-19T03:30:18.600Z,-4.84
2023-01-19T03:32:56.493Z,-4.80
2023-01-19T03:35:31.814Z,-4.86
2023-01-19T03:38:09.982Z,-4.85
2023-01-19T03:40:41.741Z,-4.88
2023-01-19T03:43:15.775Z,-4.92
2023-01-19T03:45:46.798Z,-4.92
2023-01-19T03:48:17.379Z,-4.89
2023-01-19T03:50:47.601Z,-4.93
2023-01-19T03:53:20.297Z,-4.95
2023-01-19T03:55:51.886Z,-5.02
2023-01-19T03:58:22.404Z,-5.11
2023-01-19T04:00:52.478Z,-5.12
2023-01-19T04:03:22.333Z,-5.05
2023-01-19T04:05:52.191Z,-5.11
2023-01-19T04:08:21.965Z,-5.06
2023-01-19T04:10:51.780Z,-5.10
2023-01-19T04:13:21.730Z,-5.10
2023-01-19T04:15:51.697Z,-5.14
2023-01-19T04:18:21.537Z,-5.22
2023-01-19T04:20:51.332Z,-5.16
2023-01-19T04:23:21.832Z,-5.20
2023-01-19T04:25:58.827Z,-5.22
2023-01-19T04:28:29.120Z,-5.26
2023-01-19T04:30:57.972Z,-5.28
2023-01-19T04:33:26.919Z,-5.27
2023-01-19T04:35:55.208Z,-5.24
2023-01-19T04:38:24.889Z,-5.22
2023-01-19T04:40:55.072Z,-5.24
2023-01-19T04:43:24.276Z,-5.27
2023-01-19T04:45:53.975Z,-5.26
2023-01-19T04:48:23.925Z,-5.30
2023-01-19T04:50:53.908Z,-5.34
2023-01-19T04:53:23.976Z,-5.34
2023-01-19T04:55:55.453Z,-5.28
2023-01-19T04:58:25.208Z,-5.27
2023-01-19T05:00:55.313Z,-5.34
2023-01-19T05:03:26.577Z,-5.35
2023-01-19T05:05:56.499Z,-5.37
2023-01-19T05:08:26.296Z,-5.39
2023-01-19T05:10:57.547Z,-5.42
2023-01-19T05:13:27.377Z,-5.47
2023-01-19T05:15:57.165Z,-5.49
2023-01-19T05:18:27.023Z,-5.50
2023-01-19T05:20:56.802Z,-5.50
2023-01-19T05:23:26.620Z,-5.46
2023-01-19T05:25:56.787Z,-5.47
2023-01-19T05:28:28.904Z,-5.46
2023-01-19T05:30:59.272Z,-5.45
2023-01-19T05:33:29.464Z,-5.45
2023-01-19T05:35:59.440Z,-5.52
2023-01-19T05:38:34.910Z,-5.54
2023-01-19T05:41:05.430Z,-5.55
2023-01-19T05:43:35.226Z,-5.58
2023-01-19T05:46:05.685Z,-5.63
2023-01-19T05:48:35.584Z,-5.67
2023-01-19T05:51:06.099Z,-5.71
2023-01-19T05:53:35.837Z,-5.75
2023-01-19T05:56:09.212Z,-5.78
2023-01-19T05:58:39.664Z,-5.81
2023-01-19T06:01:10.804Z,-5.81
2023-01-19T06:03:41.002Z,-5.81
2023-01-19T06:06:11.805Z,-5.79
2023-01-19T06:08:42.428Z,-5.73
2023-01-19T06:11:10.251Z,-5.71
2023-01-19T06:13:42.323Z,-5.67
2023-01-19T06:16:11.780Z,-5.69
2023-01-19T06:18:41.620Z,-5.71
2023-01-19T06:21:13.612Z,-5.79
2023-01-19T06:23:43.376Z,-5.83
2023-01-19T06:26:13.637Z,-5.81
2023-01-19T06:28:43.421Z,-5.81
2023-01-19T06:31:13.170Z,-5.86
2023-01-19T06:33:43.099Z,-5.83
2023-01-19T06:36:13.152Z,-5.81
2023-01-19T06:38:43.249Z,-5.85
2023-01-19T06:41:13.145Z,-5.91
2023-01-19T06:43:42.914Z,-5.91
2023-01-19T06:46:13.762Z,-5.98
2023-01-19T06:48:43.660Z,-5.93
2023-01-19T06:51:13.548Z,-5.87
2023-01-19T06:53:43.780Z,-5.85
2023-01-19T06:56:13.813Z,-5.83
2023-01-19T06:58:43.821Z,-5.83
2023-01-19T07:01:13.901Z,-5.85
2023-01-19T07:03:46.102Z,-5.88
2023-01-19T07:06:16.526Z,-5.86
2023-01-19T07:08:46.372Z,-5.89
2023-01-19T07:11:25.306Z,-5.88
2023-01-19T07:14:00.199Z,-5.79
2023-01-19T07:16:27.773Z,-5.77
2023-01-19T07:18:57.015Z,-5.76
2023-01-19T07:21:29.193Z,-5.81
2023-01-19T07:23:57.863Z,-5.78
2023-01-19T07:26:28.032Z,-5.74
2023-01-19T07:28:57.248Z,-5.68
2023-01-19T07:31:25.848Z,-5.63
2023-01-19T07:33:54.334Z,-5.59
2023-01-19T07:36:22.889Z,-5.57
2023-01-19T07:38:51.181Z,-5.54
2023-01-19T07:41:19.576Z,-5.52
2023-01-19T07:43:48.087Z,-5.49
2023-01-19T07:46:16.505Z,-5.47
2023-01-19T07:48:44.961Z,-5.43
2023-01-19T07:51:17.956Z,-5.42
2023-01-19T07:53:46.166Z,-5.34
2023-01-19T07:56:13.292Z,-5.30
2023-01-19T07:58:41.770Z,-5.24
2023-01-19T08:01:13.196Z,-5.22
2023-01-19T08:03:43.603Z,-5.15
2023-01-19T08:06:27.574Z,-5.16
2023-01-19T08:08:56.762Z,-5.13
2023-01-19T08:11:26.874Z,-5.09
2023-01-19T08:13:56.671Z,-5.04
2023-01-19T08:16:27.864Z,-4.98
2023-01-19T08:18:56.886Z,-4.93
2023-01-19T08:21:28.097Z,-4.89
2023-01-19T08:23:57.998Z,-4.84
2023-01-19T08:26:33.263Z,-4.79
2023-01-19T08:29:05.166Z,-4.70
2023-01-19T08:31:33.281Z,-4.68
2023-01-19T08:34:00.636Z,-4.64
2023-01-19T08:36:30.451Z,-4.61
2023-01-19T08:39:00.545Z,-4.56
2023-01-19T08:41:30.317Z,-4.49
2023-01-19T08:44:02.993Z,-4.46
2023-01-19T08:46:32.928Z,-4.38
2023-01-19T08:49:02.779Z,-4.30
2023-01-19T08:51:32.704Z,-4.24
2023-01-19T08:54:02.564Z,-4.22
2023-01-19T08:56:32.497Z,-4.22
2023-01-19T08:59:09.487Z,-4.15
2023-01-19T09:01:41.529Z,-4.02
2023-01-19T09:04:11.528Z,-3.98
2023-01-19T09:06:41.400Z,-3.93
2023-01-19T09:09:09.684Z,-3.21
2023-01-19T09:11:36.776Z,-2.24
2023-01-19T09:14:05.653Z,-1.84
2023-01-19T09:16:32.425Z,-1.27
2023-01-19T09:19:00.971Z,-1.44
2023-01-19T09:21:29.386Z,-0.55
2023-01-19T09:23:57.928Z,-1.16
2023-01-19T09:26:27.048Z,-1.02
2023-01-19T09:28:54.597Z,-1.28
2023-01-19T09:31:23.751Z,-1.82
2023-01-19T09:33:51.387Z,-2.34
2023-01-19T09:36:19.913Z,-2.48
2023-01-19T09:38:49.638Z,-1.87
2023-01-19T09:41:23.026Z,-1.96
2023-01-19T09:44:00.409Z,-2.14
2023-01-19T09:46:41.699Z,-2.41
2023-01-19T09:49:21.500Z,-2.22
2023-01-19T09:51:52.149Z,-2.29
2023-01-19T09:54:56.831Z,-1.24
2023-01-19T09:57:28.159Z,-0.65
2023-01-19T09:59:59.720Z,-0.70
2023-01-19T10:02:48.591Z,-0.45
2023-01-19T10:05:31.909Z,0.20
2023-01-19T10:08:37.021Z,1.46
2023-01-19T10:11:22.857Z,1.05
2023-01-19T10:13:54.196Z,2.17
2023-01-19T10:16:46.879Z,1.83
2023-01-19T10:19:30.937Z,0.55
2023-01-19T10:22:22.190Z,-0.11
2023-01-19T10:24:58.710Z,1.65
2023-01-19T10:27:31.910Z,1.88
2023-01-19T10:30:02.420Z,1.37
2023-01-19T10:32:38.682Z,1.54
2023-01-19T10:35:25.871Z,1.81
2023-01-19T10:38:01.978Z,2.20
2023-01-19T10:40:49.539Z,3.49
2023-01-19T10:43:34.564Z,2.31
2023-01-19T10:46:18.097Z,3.28
2023-01-19T10:48:52.434Z,2.36
2023-01-19T10:51:23.363Z,3.06
2023-01-19T10:54:05.189Z,2.82
2023-01-19T10:56:38.373Z,3.29
2023-01-19T10:59:47.802Z,2.06
2023-01-19T11:02:30.698Z,1.53
2023-01-19T11:05:23.677Z,2.64
2023-01-19T11:07:52.595Z,2.72
2023-01-19T11:10:30.042Z,3.20
2023-01-19T11:13:15.671Z,3.49
2023-01-19T11:15:54.476Z,2.43
2023-01-19T11:18:40.272Z,1.28
2023-01-19T11:21:16.393Z,2.03
2023-01-19T11:23:54.655Z,0.97
2023-01-19T11:26:31.201Z,0.61
2023-01-19T11:29:04.566Z,0.39
2023-01-19T11:31:35.992Z,0.12
2023-01-19T11:34:32.810Z,0.22
2023-01-19T11:37:26.827Z,0.34
2023-01-19T11:40:00.295Z,0.20
2023-01-19T11:42:33.194Z,0.08
2023-01-19T11:45:26.942Z,-0.26
2023-01-19T11:47:57.382Z,-0.07
2023-01-19T11:50:44.819Z,0.10
2023-01-19T11:53:29.170Z,0.05
2023-01-19T11:56:11.325Z,-0.00
2023-01-19T11:58:47.396Z,0.00
2023-01-19T12:01:24.921Z,0.06
2023-01-19T12:04:21.757Z,-0.00
2023-01-19T12:06:56.409Z,0.05
2023-01-19T12:09:39.072Z,0.16
2023-01-19T12:12:27.961Z,0.22
2023-01-19T12:15:23.558Z,0.26
2023-01-19T12:17:58.345Z,0.27
2023-01-19T12:20:47.227Z,0.22
2023-01-19T12:24:16.735Z,0.35
2023-01-19T12:27:05.214Z,0.29
2023-01-19T12:29:36.646Z,0.22
2023-01-19T12:32:16.694Z,0.11
2023-01-19T12:34:47.630Z,0.03
2023-01-19T12:37:42.901Z,0.06
2023-01-19T12:40:28.564Z,0.07
2023-01-19T12:43:06.037Z,0.18
2023-01-19T12:45:39.716Z,0.26
2023-01-19T12:48:26.046Z,0.29
2023-01-19T12:50:55.853Z,0.16
2023-01-19T12:53:26.839Z,0.09
2023-01-19T12:56:08.647Z,0.04
2023-01-19T12:58:38.426Z,0.08
2023-01-19T13:01:28.670Z,0.16
2023-01-19T13:04:07.628Z,0.16
2023-01-19T13:06:49.675Z,0.06
2023-01-19T13:09:38.117Z,0.07
2023-01-19T13:12:21.164Z,0.07
2023-01-19T13:15:11.725Z,0.04
2023-01-19T13:18:01.548Z,-0.01
2023-01-19T13:20:53.067Z,-0.07
2023-01-19T13:23:51.646Z,-0.09
2023-01-19T13:27:03.534Z,-0.20
2023-01-19T13:29:42.772Z,-0.17
2023-01-19T13:32:21.000Z,-0.09
2023-01-19T13:35:01.758Z,-0.17
2023-01-19T13:37:41.696Z,-0.15
2023-01-19T13:40:24.898Z,-0.14
2023-01-19T13:42:55.362Z,-0.16
2023-01-19T13:45:34.220Z,-0.25
2023-01-19T13:48:14.976Z,-0.37
2023-01-19T13:51:05.752Z,-0.35
2023-01-19T13:53:36.622Z,-0.30
2023-01-19T13:56:21.899Z,-0.36
2023-01-19T13:59:18.196Z,-0.41
2023-01-19T14:01:47.143Z,-0.44
2023-01-19T14:04:31.255Z,-0.44
2023-01-19T14:07:04.856Z,-0.46
2023-01-19T14:09:33.211Z,-0.44
2023-01-19T14:12:18.549Z,-0.51
2023-01-19T14:14:48.525Z,-0.54
2023-01-19T14:17:27.390Z,-0.57
2023-01-19T14:20:01.009Z,-0.63
2023-01-19T14:23:00.107Z,-0.67
2023-01-19T14:25:34.758Z,-0.73
2023-01-19T14:28:43.538Z,-0.75
2023-01-19T14:31:33.408Z,-0.73
2023-01-19T14:34:03.274Z,-0.77
2023-01-19T14:36:39.856Z,-0.84
2023-01-19T14:39:24.554Z,-0.90
2023-01-19T14:41:57.454Z,-0.94
2023-01-19T14:44:40.180Z,-0.96
2023-01-19T14:47:29.433Z,-0.97
2023-01-19T14:50:20.187Z,-1.00
2023-01-19T14:53:00.813Z,-1.04
2023-01-19T14:55:47.744Z,-1.10
2023-01-19T14:58:21.717Z,-1.11
2023-01-19T15:00:55.769Z,-1.12
2023-01-19T15:03:43.553Z,-1.17
2023-01-19T15:06:18.689Z,-1.20
2023-01-19T15:08:47.160Z,-1.20
2023-01-19T15:11:33.609Z,-1.18
2023-01-19T15:14:03.841Z,-1.18
2023-01-19T15:16:34.685Z,-1.22
2023-01-19T15:19:04.643Z,-1.25
2023-01-19T15:21:34.392Z,-1.28
2023-01-19T15:24:04.584Z,-1.31
2023-01-19T15:26:35.865Z,-1.31
2023-01-19T15:29:24.462Z,-1.29
2023-01-19T15:31:54.382Z,-1.30
2023-01-19T15:34:24.224Z,-1.28
2023-01-19T15:36:53.991Z,-1.26
2023-01-19T15:39:23.705Z,-1.26
2023-01-19T15:41:53.671Z,-1.24
2023-01-19T15:44:23.520Z,-1.24
2023-01-19T15:46:54.658Z,-1.24
2023-01-19T15:49:25.017Z,-1.22
2023-01-19T15:51:54.747Z,-1.20
2023-01-19T15:54:24.515Z,-1.16
2023-01-19T15:56:54.335Z,-1.04
2023-01-19T15:59:24.124Z,-1.11
2023-01-19T16:01:54.112Z,-1.17
2023-01-19T16:04:22.353Z,-1.19
2023-01-19T16:06:50.782Z,-1.22
2023-01-19T16:09:20.165Z,-1.26
2023-01-19T16:11:47.689Z,-1.29
2023-01-19T16:14:17.500Z,-1.34
2023-01-19T16:16:47.540Z,-1.40
2023-01-19T16:19:16.113Z,-1.46
2023-01-19T16:21:44.291Z,-1.49
2023-01-19T16:24:12.851Z,-1.54
2023-01-19T16:26:41.096Z,-1.58
2023-01-19T16:29:11.031Z,-1.56
2023-01-19T16:31:40.642Z,-1.56
2023-01-19T16:34:11.239Z,-1.51
2023-01-19T16:36:42.669Z,-1.49
2023-01-19T16:39:15.137Z,-1.47
2023-01-19T16:41:45.354Z,-1.47
2023-01-19T16:44:16.834Z,-1.48
2023-01-19T16:46:49.674Z,-1.47
2023-01-19T16:49:22.961Z,-1.43
2023-01-19T16:54:15.468Z,-1.36
2023-01-19T16:56:46.162Z,-1.35
2023-01-19T16:59:18.524Z,-1.35
2023-01-19T17:01:51.037Z,-1.38
2023-01-19T17:04:23.538Z,-1.38
2023-01-19T17:06:55.068Z,-1.38
2023-01-19T17:09:24.917Z,-1.32
2023-01-19T17:11:54.829Z,-1.34
2023-01-19T17:14:24.935Z,-1.30
2023-01-19T17:16:54.719Z,-1.28
2023-01-19T17:19:24.448Z,-1.30
2023-01-19T17:21:54.196Z,-1.32
2023-01-19T17:24:23.960Z,-1.33
2023-01-19T17:26:53.984Z,-1.37
2023-01-19T17:29:24.302Z,-1.36
2023-01-19T17:31:54.025Z,-1.38
2023-01-19T17:34:23.740Z,-1.41
2023-01-19T17:36:54.137Z,-1.40
2023-01-19T17:39:23.903Z,-1.42
2023-01-19T17:41:53.721Z,-1.42
2023-01-19T17:44:23.751Z,-1.40
2023-01-19T17:46:53.587Z,-1.38
2023-01-19T17:49:23.403Z,-1.41
2023-01-19T17:51:53.555Z,-1.46
2023-01-19T17:54:23.357Z,-1.45
2023-01-19T17:56:51.731Z,-1.45
2023-01-19T17:59:20.138Z,-1.43
2023-01-19T18:01:49.586Z,-1.41
2023-01-19T18:04:17.902Z,-1.43
2023-01-19T18:06:47.296Z,-1.43
2023-01-19T18:09:14.833Z,-1.43
2023-01-19T18:11:43.281Z,-1.41
2023-01-19T18:14:11.637Z,-1.40
2023-01-19T18:16:40.040Z,-1.40
2023-01-19T18:19:08.542Z,-1.42
2023-01-19T18:21:38.092Z,-1.39
2023-01-19T18:24:06.596Z,-1.39
2023-01-19T18:26:35.544Z,-1.39
2023-01-19T18:29:05.659Z,-1.35
2023-01-19T18:31:35.525Z,-1.34
2023-01-19T18:34:05.373Z,-1.30
2023-01-19T18:36:35.752Z,-1.28
2023-01-19T18:39:05.609Z,-1.29
2023-01-19T18:41:41.622Z,-1.28
2023-01-19T18:44:12.156Z,-1.27
2023-01-19T18:46:41.955Z,-1.25
2023-01-19T18:49:11.895Z,-1.22
2023-01-19T18:51:42.021Z,-1.22
2023-01-19T18:54:12.159Z,-1.20
2023-01-19T18:56:42.002Z,-1.15
2023-01-19T18:59:11.989Z,-1.06
2023-01-19T19:01:41.945Z,-1.03
2023-01-19T19:04:12.069Z,-0.98
2023-01-19T19:06:42.069Z,-0.95
2023-01-19T19:09:11.967Z,-0.98
2023-01-19T19:11:41.775Z,-0.96
2023-01-19T19:14:11.632Z,-0.97
2023-01-19T19:16:41.366Z,-0.97
2023-01-19T19:19:15.172Z,-0.93
2023-01-19T19:21:44.936Z,-0.92
2023-01-19T19:24:14.800Z,-0.89
2023-01-19T19:26:44.606Z,-0.87
2023-01-19T19:29:14.486Z,-0.89
2023-01-19T19:31:45.134Z,-0.88
2023-01-19T19:34:15.204Z,-0.87
2023-01-19T19:36:44.970Z,-0.87
2023-01-19T19:39:14.820Z,-0.85
2023-01-19T19:41:44.590Z,-0.82
2023-01-19T19:44:14.414Z,-0.82
2023-01-19T19:46:44.626Z,-0.81
2023-01-19T19:49:16.522Z,-0.81
2023-01-19T19:51:46.753Z,-0.80
2023-01-19T19:54:16.547Z,-0.77
2023-01-19T19:56:47.399Z,-0.77
2023-01-19T19:59:14.696Z,-0.74
2023-01-19T20:01:45.062Z,-0.74
2023-01-19T20:04:14.708Z,-0.72
2023-01-19T20:06:44.697Z,-0.69
2023-01-19T20:09:16.772Z,-0.68
2023-01-19T20:11:49.065Z,-0.68
2023-01-19T20:14:18.968Z,-0.67
2023-01-19T20:16:48.763Z,-0.64
2023-01-19T20:19:18.537Z,-0.60
2023-01-19T20:21:48.506Z,-0.60
2023-01-19T20:24:20.631Z,-0.62
2023-01-19T20:26:53.024Z,-0.64
2023-01-19T20:29:23.183Z,-0.62
2023-01-19T20:31:56.341Z,-0.62
2023-01-19T20:34:33.038Z,-0.63
2023-01-19T20:37:04.727Z,-0.64
2023-01-19T20:39:36.777Z,-0.65
2023-01-19T20:42:15.354Z,-0.61
2023-01-19T20:44:44.611Z,-0.62
2023-01-19T20:47:14.309Z,-0.60
2023-01-19T20:49:44.209Z,-0.61
2023-01-19T20:52:14.037Z,-0.59
2023-01-19T20:54:43.990Z,-0.58
2023-01-19T20:57:13.938Z,-0.57
2023-01-19T20:59:43.779Z,-0.56
2023-01-19T21:02:15.134Z,-0.56
2023-01-19T21:04:45.132Z,-0.56
2023-01-19T21:07:15.029Z,-0.54
2023-01-19T21:09:43.672Z,-0.54
2023-01-19T21:12:17.348Z,-0.55
2023-01-19T21:14:46.700Z,-0.53
2023-01-19T21:17:15.741Z,-0.51
2023-01-19T21:19:45.741Z,-0.51
2023-01-19T21:22:15.680Z,-0.53
2023-01-19T21:24:47.540Z,-0.54
2023-01-19T21:27:17.467Z,-0.50
2023-01-19T21:29:50.135Z,-0.50
2023-01-19T21:32:18.773Z,-0.49
2023-01-19T21:34:48.120Z,-0.49
2023-01-19T21:37:16.080Z,-0.46
2023-01-19T21:39:44.030Z,-0.45
2023-01-19T21:42:15.475Z,-0.44
2023-01-19T21:44:44.295Z,-0.43
2023-01-19T21:47:12.425Z,-0.40
2023-01-19T21:49:41.548Z,-0.40
2023-01-19T21:52:09.636Z,-0.41
2023-01-19T21:54:37.835Z,-0.38
2023-01-19T21:57:06.111Z,-0.35
2023-01-19T21:59:34.584Z,-0.36
2023-01-19T22:02:03.391Z,-0.36
2023-01-19T22:04:31.740Z,-0.36
2023-01-19T22:06:59.780Z,-0.37
2023-01-19T22:09:28.191Z,-0.36
2023-01-19T22:11:57.425Z,-0.36
2023-01-19T22:14:25.237Z,-0.37
2023-01-19T22:16:54.207Z,-0.35
2023-01-19T22:19:22.097Z,-0.34
2023-01-19T22:21:50.573Z,-0.34
2023-01-19T22:24:18.854Z,-0.33
2023-01-19T22:26:47.554Z,-0.32
2023-01-19T22:29:15.716Z,-0.30
2023-01-19T22:31:45.789Z,-0.28
2023-01-19T22:34:17.146Z,-0.27
2023-01-19T22:36:44.866Z,-0.24
2023-01-19T22:39:15.147Z,-0.23
2023-01-19T22:41:47.013Z,-0.23
2023-01-19T22:44:22.559Z,-0.24
2023-01-19T22:46:55.963Z,-0.22
2023-01-19T22:49:23.363Z,-0.21
2023-01-19T22:51:50.589Z,-0.21
2023-01-19T22:54:22.931Z,-0.19
2023-01-19T22:56:52.335Z,-0.18
2023-01-19T22:59:22.095Z,-0.17
2023-01-19T23:01:51.952Z,-0.17
2023-01-19T23:04:22.031Z,-0.14
2023-01-19T23:06:52.016Z,-0.18
2023-01-19T23:09:22.459Z,-0.22
2023-01-19T23:11:52.967Z,-0.18
2023-01-19T23:14:22.676Z,-0.14
2023-01-19T23:16:52.971Z,-0.12
2023-01-19T23:19:22.842Z,-0.05
2023-01-19T23:21:53.292Z,-0.03
2023-01-19T23:24:22.973Z,-0.02
2023-01-19T23:26:52.807Z,-0.02
2023-01-19T23:29:23.317Z,0.04
2023-01-19T23:31:53.447Z,0.12
2023-01-19T23:34:22.711Z,0.03
2023-01-19T23:36:50.774Z,-0.01
2023-01-19T23:39:22.454Z,0.01
2023-01-19T23:41:51.026Z,-0.10
2023-01-19T23:44:19.353Z,-0.06
2023-01-19T23:46:48.590Z,-0.02
2023-01-19T23:49:17.063Z,-0.01
2023-01-19T23:51:44.732Z,0.02
2023-01-19T23:54:13.152Z,-0.01
2023-01-19T23:56:42.784Z,-0.03
2023-01-19T23:59:14.096Z,-0.02
